Time;durP1;ratioP1;P1;durP2;ratioP2;P2;SDS_P1;SDS_P2;PMS_P1;PMS_P2;Temp;Humidity;BMP_temperature;BMP_pressure;BME280_temperature;BME280_humidity;BME280_pressure;Samples;Min_cycle;Max_cycle;Signal;HPM_P1;HPM_P2
2023/01/30 00:02:15;;;;;;;23.95;11.43;;;;;;;0.86;95.63;100456.34;12212207;19;20011;-81
2023/01/30 00:06:17;;;;;;;26.42;12.25;;;;;;;0.84;96.04;100450.22;12197656;19;20472;-82
2023/01/30 00:10:19;;;;;;;24.35;11.00;;;;;;;0.78;96.97;100437.34;12217361;19;20030;-82
2023/01/30 00:14:21;;;;;;;25.50;11.97;;;;;;;0.71;97.98;100430.91;12218365;19;20097;-81
2023/01/30 00:18:23;;;;;;;22.25;10.82;;;;;;;0.71;98.29;100411.91;12200505;19;20063;-83
2023/01/30 00:22:24;;;;;;;20.65;10.55;;;;;;;0.76;97.87;100435.81;12232858;19;20043;-83
2023/01/30 00:26:26;;;;;;;22.45;10.25;;;;;;;0.76;98.28;100447.50;12229588;19;20010;-81
2023/01/30 00:30:28;;;;;;;28.30;13.35;;;;;;;0.75;98.23;100447.69;12201708;19;20010;-81
2023/01/30 00:34:31;;;;;;;25.65;11.98;;;;;;;0.78;98.24;100415.66;12227429;19;20010;-81
2023/01/30 00:38:33;;;;;;;29.27;14.05;;;;;;;0.74;99.16;100395.28;12241694;19;20821;-80
2023/01/30 00:47:04;;;;;;;25.35;11.02;;;;;;;0.65;100.00;100342.06;12237114;19;20047;-82
2023/01/30 00:51:06;;;;;;;22.52;10.00;;;;;;;0.65;100.00;100325.81;12207244;19;21375;-82
2023/01/30 00:55:07;;;;;;;23.80;11.33;;;;;;;0.72;100.00;100339.53;12221629;19;20848;-81
2023/01/30 00:59:09;;;;;;;25.93;9.83;;;;;;;0.79;100.00;100340.53;12217586;19;20006;-82
2023/01/30 01:03:11;;;;;;;24.40;10.15;;;;;;;0.75;100.00;100329.19;12197981;19;20325;-82
2023/01/30 01:07:14;;;;;;;22.63;10.20;;;;;;;0.67;100.00;100329.19;12218628;19;20018;-82
2023/01/30 01:11:23;;;;;;;26.87;10.20;;;;;;;0.71;100.00;100318.84;12223810;19;20015;-81
2023/01/30 01:15:26;;;;;;;25.42;11.23;;;;;;;0.79;100.00;100300.69;12206651;19;20510;-82
2023/01/30 01:19:27;;;;;;;26.65;10.70;;;;;;;0.85;100.00;100329.81;12229068;19;20014;-82
2023/01/30 01:23:29;;;;;;;25.70;9.60;;;;;;;0.82;100.00;100322.03;12234350;19;20390;-82
2023/01/30 01:27:31;;;;;;;28.88;13.18;;;;;;;0.87;100.00;100354.91;12243637;19;20006;-81
2023/01/30 01:31:32;;;;;;;29.52;11.98;;;;;;;0.88;100.00;100340.31;12217773;19;20011;-84
2023/01/30 01:35:39;;;;;;;29.87;13.40;;;;;;;0.87;100.00;100340.50;12195144;19;20007;-83
2023/01/30 01:44:09;;;;;;;25.95;12.70;;;;;;;0.85;100.00;100308.13;12215463;19;20003;-82
2023/01/30 01:48:25;;;;;;;25.63;11.75;;;;;;;0.83;100.00;100306.59;12189745;19;20006;-81
2023/01/30 01:52:27;;;;;;;26.92;10.95;;;;;;;0.83;100.00;100304.75;12210611;19;20011;-80
2023/01/30 01:56:33;;;;;;;28.02;11.75;;;;;;;0.87;100.00;100299.81;12212682;19;20010;-80
2023/01/30 02:00:35;;;;;;;22.88;11.02;;;;;;;0.86;100.00;100309.81;12208440;19;20006;-82
2023/01/30 02:09:07;;;;;;;23.00;9.90;;;;;;;0.94;100.00;100294.53;12187364;19;20093;-82
2023/01/30 02:13:08;;;;;;;23.15;9.88;;;;;;;0.91;100.00;100295.72;12200519;19;20058;-81
2023/01/30 02:17:10;;;;;;;24.10;10.50;;;;;;;0.90;100.00;100264.19;12207354;19;20006;-83
2023/01/30 02:21:33;;;;;;;21.98;10.20;;;;;;;0.88;100.00;100260.81;12185780;19;20003;-82
2023/01/30 02:26:11;;;;;;;29.27;11.77;;;;;;;0.97;100.00;100250.75;12205377;19;20007;-81
2023/01/30 02:30:35;;;;;;;26.27;10.52;;;;;;;0.94;100.00;100254.66;12183782;19;20086;-81
2023/01/30 02:35:04;;;;;;;22.75;9.73;;;;;;;0.93;100.00;100260.28;12206330;19;20599;-82
2023/01/30 02:39:23;;;;;;;23.25;11.40;;;;;;;0.89;100.00;100266.06;12182322;19;20022;-82
2023/01/30 02:43:36;;;;;;;21.00;9.82;;;;;;;0.96;100.00;100259.94;12200448;19;20730;-81
2023/01/30 02:47:55;;;;;;;22.33;10.25;;;;;;;0.89;100.00;100247.06;12191610;19;20188;-80
2023/01/30 02:51:59;;;;;;;26.92;10.70;;;;;;;0.88;100.00;100256.22;12251220;19;19999;-83
2023/01/30 02:56:02;;;;;;;23.48;10.75;;;;;;;0.91;100.00;100261.28;12241072;19;20006;-83
2023/01/30 03:00:06;;;;;;;26.45;11.02;;;;;;;0.97;100.00;100257.03;12185514;19;20003;-83
2023/01/30 03:04:25;;;;;;;25.80;10.27;;;;;;;0.99;100.00;100251.44;12209724;19;20007;-82
2023/01/30 03:08:40;;;;;;;19.65;8.82;;;;;;;1.06;100.00;100257.84;12211621;19;20011;-83
2023/01/30 03:12:54;;;;;;;26.33;9.73;;;;;;;1.06;100.00;100236.13;12182981;19;20006;-85
2023/01/30 03:17:00;;;;;;;22.70;10.07;;;;;;;1.07;100.00;100235.97;12205897;19;20002;-83
2023/01/30 03:21:06;;;;;;;27.60;12.15;;;;;;;1.00;100.00;100242.25;12183539;19;20066;-83
2023/01/30 03:25:08;;;;;;;23.23;11.10;;;;;;;1.04;100.00;100240.88;12207090;19;20102;-83
2023/01/30 03:29:10;;;;;;;24.05;12.18;;;;;;;1.02;100.00;100237.50;12208852;19;20392;-82
2023/01/30 03:33:13;;;;;;;18.63;8.90;;;;;;;0.95;100.00;100240.06;12188532;19;20010;-86
2023/01/30 03:37:20;;;;;;;23.20;10.07;;;;;;;0.96;100.00;100230.09;12209782;19;20017;-82
2023/01/30 03:41:22;;;;;;;21.00;9.17;;;;;;;0.95;100.00;100225.66;12206673;19;20013;-83
2023/01/30 03:45:23;;;;;;;24.23;9.65;;;;;;;0.99;100.00;100236.00;12182061;19;20002;-82
2023/01/30 03:49:26;;;;;;;24.83;9.80;;;;;;;1.01;100.00;100235.81;12205065;19;20006;-82
2023/01/30 03:53:28;;;;;;;27.23;11.65;;;;;;;1.02;100.00;100215.81;12206835;19;20010;-85
2023/01/30 03:57:30;;;;;;;25.60;10.00;;;;;;;0.96;100.00;100211.94;12198825;19;20010;-83
2023/01/30 04:01:33;;;;;;;;;;;;;;;0.95;100.00;100193.94;12213221;19;20094;-80
2023/01/30 04:05:35;;;;;;;22.00;9.02;;;;;;;0.97;100.00;100189.19;12183824;19;20497;-82
2023/01/30 04:09:40;;;;;;;27.58;10.05;;;;;;;0.94;100.00;100194.13;12206534;19;20051;-83
2023/01/30 04:13:44;;;;;;;27.92;11.23;;;;;;;0.99;100.00;100191.72;12199899;19;21825;-81
2023/01/30 04:17:46;;;;;;;25.37;9.93;;;;;;;0.89;100.00;100176.53;12181784;19;20003;-83
2023/01/30 04:22:06;;;;;;;26.52;10.10;;;;;;;0.94;100.00;100161.56;12207290;19;20631;-83
2023/01/30 04:26:10;;;;;;;22.50;10.02;;;;;;;0.97;100.00;100170.19;12208306;19;20313;-83
2023/01/30 04:30:14;;;;;;;23.67;10.30;;;;;;;0.94;100.00;100167.84;12185583;19;20099;-83
2023/01/30 04:34:16;;;;;;;24.75;11.75;;;;;;;0.94;100.00;100169.72;12207425;19;20313;-82
2023/01/30 04:38:19;;;;;;;25.23;11.23;;;;;;;0.88;100.00;100149.56;12232519;19;20018;-87
2023/01/30 04:42:20;;;;;;;25.17;10.32;;;;;;;0.90;100.00;100153.78;12209367;19;20002;-84
2023/01/30 04:46:42;;;;;;;28.73;10.77;;;;;;;0.83;100.00;100152.81;12210219;19;20014;-82
2023/01/30 04:50:48;;;;;;;26.10;10.65;;;;;;;0.85;100.00;100139.91;12198297;19;20002;-83
2023/01/30 04:54:50;;;;;;;28.02;11.23;;;;;;;0.80;100.00;100139.59;12218545;19;21133;-80
2023/01/30 04:58:51;;;;;;;28.65;10.98;;;;;;;0.79;100.00;100128.94;12218531;19;20006;-85
2023/01/30 05:02:57;;;;;;;23.45;11.27;;;;;;;0.74;100.00;100132.16;12198419;19;20033;-82
2023/01/30 05:06:58;;;;;;;27.60;11.60;;;;;;;0.70;100.00;100103.72;12215311;19;20043;-83
2023/01/30 05:11:00;;;;;;;25.65;11.45;;;;;;;0.65;100.00;100101.56;12213932;19;20002;-82
2023/01/30 05:15:01;;;;;;;26.83;11.43;;;;;;;0.64;100.00;100099.84;12191603;19;20007;-82
2023/01/30 05:19:03;;;;;;;30.35;11.93;;;;;;;0.62;100.00;100101.88;12210540;19;21446;-83
2023/01/30 05:23:05;;;;;;;27.65;10.75;;;;;;;0.68;100.00;100106.63;12212084;19;20066;-84
2023/01/30 05:27:06;;;;;;;26.33;11.50;;;;;;;0.68;100.00;100108.47;12188730;19;20011;-81
2023/01/30 05:31:12;;;;;;;28.73;11.15;;;;;;;0.74;100.00;100113.19;12207934;19;20006;-83
2023/01/30 05:35:14;;;;;;;22.23;11.18;;;;;;;0.75;100.00;100123.03;12207703;19;20761;-84
2023/01/30 05:39:16;;;;;;;29.77;11.88;;;;;;;0.82;100.00;100129.41;12189088;19;20509;-84
2023/01/30 05:43:18;;;;;;;34.15;12.98;;;;;;;0.86;100.00;100129.88;12208701;19;20010;-82
2023/01/30 05:47:20;;;;;;;24.90;11.35;;;;;;;0.86;100.00;100103.63;12205119;19;20036;-82
2023/01/30 05:51:24;;;;;;;29.80;11.95;;;;;;;0.87;100.00;100102.59;12180986;19;20030;-83
2023/01/30 05:55:25;;;;;;;21.92;10.32;;;;;;;0.86;100.00;100081.94;12205772;19;20011;-83
2023/01/30 05:59:27;;;;;;;27.67;10.70;;;;;;;0.86;100.00;100090.06;12207931;19;20473;-83
2023/01/30 06:03:29;;;;;;;24.45;10.55;;;;;;;0.88;100.00;100073.59;12189475;19;20003;-81
2023/01/30 06:07:31;;;;;;;25.17;10.60;;;;;;;0.93;100.00;100065.75;12208397;19;20026;-83
2023/01/30 06:11:32;;;;;;;29.60;12.17;;;;;;;0.96;100.00;100072.69;12204451;19;20658;-83
2023/01/30 06:15:35;;;;;;;25.67;10.75;;;;;;;1.02;100.00;100064.66;12242018;19;20034;-85
2023/01/30 06:19:37;;;;;;;25.90;10.93;;;;;;;1.05;100.00;100072.44;12267928;19;20027;-84
2023/01/30 06:23:38;;;;;;;23.10;9.90;;;;;;;1.08;100.00;100068.53;12209972;19;20074;-83
2023/01/30 06:27:42;;;;;;;23.58;10.00;;;;;;;1.16;100.00;100071.19;12215503;19;20002;-83
2023/01/30 06:31:43;;;;;;;27.75;10.88;;;;;;;1.13;100.00;100087.81;12202009;19;20011;-83
2023/01/30 06:35:48;;;;;;;22.17;9.77;;;;;;;1.18;100.00;100079.97;12184962;19;20657;-82
2023/01/30 06:39:50;;;;;;;24.10;10.80;;;;;;;1.24;100.00;100079.25;12207888;19;20006;-82
2023/01/30 06:43:51;;;;;;;24.88;11.23;;;;;;;1.30;100.00;100075.78;12205382;19;20007;-83
2023/01/30 06:47:54;;;;;;;20.13;9.20;;;;;;;1.27;100.00;100084.31;12187019;19;20003;-84
2023/01/30 06:51:56;;;;;;;25.50;9.63;;;;;;;1.21;100.00;100071.47;12206675;19;20014;-83
2023/01/30 06:55:59;;;;;;;19.98;9.00;;;;;;;1.30;100.00;100059.50;12205191;19;20002;-84
2023/01/30 07:00:09;;;;;;;23.23;9.63;;;;;;;1.30;100.00;100072.25;12185677;19;20027;-82
2023/01/30 07:04:11;;;;;;;22.48;10.25;;;;;;;1.36;100.00;100080.47;12206307;19;20746;-83
2023/01/30 07:08:14;;;;;;;20.23;8.65;;;;;;;1.29;100.00;100093.13;12216812;19;20010;-82
2023/01/30 07:12:16;;;;;;;23.58;10.45;;;;;;;1.34;100.00;100079.00;12188344;19;20035;-82
2023/01/30 07:16:17;;;;;;;24.17;10.40;;;;;;;1.33;100.00;100061.84;12205105;19;20525;-85
2023/01/30 07:20:19;;;;;;;20.90;8.90;;;;;;;1.31;100.00;100069.34;12189942;19;20035;-81
2023/01/30 07:24:41;;;;;;;24.00;9.50;;;;;;;1.40;100.00;100075.56;12192651;19;20392;-83
2023/01/30 07:28:44;;;;;;;22.80;8.85;;;;;;;1.41;100.00;100103.53;12216179;19;20011;-81
2023/01/30 07:32:53;;;;;;;27.25;11.45;;;;;;;1.43;100.00;100131.34;12213056;19;20010;-86
2023/01/30 07:36:55;;;;;;;26.17;10.02;;;;;;;1.40;100.00;100090.97;12271338;19;20002;-86
2023/01/30 07:40:57;;;;;;;23.13;10.57;;;;;;;1.40;100.00;100113.56;12239050;19;20521;-82
2023/01/30 07:44:59;;;;;;;20.50;9.40;;;;;;;1.45;100.00;100110.28;12187967;19;20070;-83
2023/01/30 07:49:01;;;;;;;23.30;9.20;;;;;;;1.44;100.00;100105.91;12211855;19;20043;-82
2023/01/30 07:53:04;;;;;;;18.92;9.48;;;;;;;1.43;100.00;100098.75;12215771;19;20097;-84
2023/01/30 07:57:06;;;;;;;19.48;9.27;;;;;;;1.48;100.00;100128.94;12192523;19;20027;-82
2023/01/30 08:01:07;;;;;;;19.70;8.55;;;;;;;1.49;100.00;100119.78;12209908;19;20003;-82
2023/01/30 08:05:09;;;;;;;19.92;9.60;;;;;;;1.45;100.00;100115.72;12214209;19;20014;-80
2023/01/30 08:09:11;;;;;;;21.40;9.20;;;;;;;1.48;100.00;100113.47;12190145;19;20027;-83
2023/01/30 08:13:13;;;;;;;;;;;;;;;1.54;100.00;100128.19;12209562;19;20076;-82
2023/01/30 08:17:15;;;;;;;17.60;7.55;;;;;;;1.63;100.00;100105.34;12211722;19;19934;-81
2023/01/30 08:21:17;;;;;;;15.40;7.40;;;;;;;1.65;100.00;100092.44;12185379;19;20011;-82
2023/01/30 08:25:21;;;;;;;18.70;7.88;;;;;;;1.71;100.00;100088.16;12223758;19;20801;-82
2023/01/30 08:29:23;;;;;;;19.90;7.75;;;;;;;1.70;100.00;100092.75;12220215;19;20014;-81
2023/01/30 08:33:24;;;;;;;16.70;7.82;;;;;;;1.72;100.00;100087.94;12195308;19;20010;-80
2023/01/30 08:37:26;;;;;;;19.35;8.23;;;;;;;1.76;100.00;100085.72;12218051;19;20031;-83
2023/01/30 08:41:28;;;;;;;20.02;8.00;;;;;;;1.79;100.00;100098.94;12222591;19;20006;-83
2023/01/30 08:45:30;;;;;;;20.48;9.25;;;;;;;1.73;100.00;100105.97;12199039;19;20038;-80
2023/01/30 08:49:32;;;;;;;23.25;9.85;;;;;;;1.74;100.00;100102.19;12219612;19;20007;-83
2023/01/30 08:53:34;;;;;;;17.95;8.38;;;;;;;1.70;100.00;100097.34;12200617;19;20020;-80
2023/01/30 08:57:41;;;;;;;19.58;8.23;;;;;;;1.78;100.00;100075.50;12217795;19;20015;-83
2023/01/30 09:01:56;;;;;;;18.45;8.27;;;;;;;1.86;100.00;100069.13;12220477;19;20006;-81
2023/01/30 09:06:36;;;;;;;19.13;7.78;;;;;;;1.87;100.00;100068.09;12196622;19;20026;-84
2023/01/30 09:11:37;;;;;;;20.00;8.73;;;;;;;1.89;100.00;100057.91;12217727;19;20025;-86
2023/01/30 09:16:09;;;;;;;20.23;8.77;;;;;;;2.01;100.00;100054.50;12217765;19;20062;-82
2023/01/30 09:21:00;;;;;;;22.73;8.52;;;;;;;2.11;100.00;100042.50;12215090;19;20043;-84
2023/01/30 09:25:05;;;;;;;18.10;7.78;;;;;;;2.15;100.00;100055.53;12213553;19;20375;-82
2023/01/30 09:29:07;;;;;;;16.80;7.97;;;;;;;2.21;100.00;100054.78;12209349;19;20401;-81
2023/01/30 09:33:09;;;;;;;19.60;7.95;;;;;;;2.22;100.00;100055.63;12180672;19;20045;-82
2023/01/30 09:37:11;;;;;;;16.25;7.78;;;;;;;2.23;100.00;100063.59;12209584;19;20002;-81
2023/01/30 09:41:55;;;;;;;17.17;7.65;;;;;;;2.18;100.00;100046.16;12208721;19;20006;-80
2023/01/30 09:46:11;;;;;;;17.67;7.07;;;;;;;2.23;100.00;100051.84;12196832;19;20042;-81
2023/01/30 09:50:45;;;;;;;16.23;7.03;;;;;;;2.30;100.00;100032.94;12217632;19;20010;-83
2023/01/30 09:54:59;;;;;;;15.60;6.93;;;;;;;2.26;100.00;100025.16;12201004;19;20037;-84
2023/01/30 09:59:03;;;;;;;14.55;6.93;;;;;;;2.33;100.00;100055.13;12217810;19;20007;-80
2023/01/30 10:03:13;;;;;;;16.55;7.55;;;;;;;2.39;100.00;100048.94;12189876;19;20090;-81
2023/01/30 10:07:20;;;;;;;16.70;7.93;;;;;;;2.45;100.00;100033.72;12214250;19;20006;-83
2023/01/30 10:11:46;;;;;;;14.73;7.00;;;;;;;2.46;100.00;100028.09;12219592;19;20006;-81
2023/01/30 10:16:02;;;;;;;13.70;6.32;;;;;;;2.50;100.00;100034.00;12195242;19;20010;-83
2023/01/30 10:20:36;;;;;;;13.00;6.28;;;;;;;2.63;100.00;100025.13;12212032;19;20021;-82
2023/01/30 10:24:50;;;;;;;16.35;6.85;;;;;;;2.67;100.00;100020.97;12193240;19;20034;-81
2023/01/30 10:29:07;;;;;;;15.85;9.05;;;;;;;2.73;100.00;100021.03;12214473;19;20094;-80
2023/01/30 10:33:24;;;;;;;21.35;10.35;;;;;;;2.89;100.00;100013.69;12184195;19;20018;-82
2023/01/30 10:37:31;;;;;;;18.58;7.93;;;;;;;2.94;100.00;100006.63;12213593;19;20026;-84
2023/01/30 10:41:44;;;;;;;11.38;5.60;;;;;;;3.12;100.00;100008.00;12199382;19;20016;-81
2023/01/30 10:45:52;;;;;;;;;;;;;;;3.24;100.00;99983.81;12212236;19;20007;-84
2023/01/30 10:50:15;;;;;;;10.45;6.13;;;;;;;3.41;100.00;99986.03;12208864;19;19922;-84
2023/01/30 10:54:25;;;;;;;17.63;8.27;;;;;;;3.63;100.00;99986.81;12187973;19;20013;-81
2023/01/30 10:58:52;;;;;;;9.95;4.85;;;;;;;3.96;100.00;99988.03;12211576;19;20022;-81
2023/01/30 11:03:10;;;;;;;7.35;3.78;;;;;;;4.13;100.00;100007.59;12190169;19;20050;-80
2023/01/30 11:07:12;;;;;;;7.13;3.10;;;;;;;4.17;100.00;100014.34;12206887;19;20006;-81
2023/01/30 11:11:23;;;;;;;6.57;2.92;;;;;;;4.22;100.00;99996.31;12207468;19;20021;-82
2023/01/30 11:15:43;;;;;;;6.22;3.47;;;;;;;4.40;100.00;99994.91;12184425;19;20058;-81
2023/01/30 11:19:54;;;;;;;7.93;3.45;;;;;;;4.54;100.00;99994.75;12207084;19;20559;-82
2023/01/30 11:24:02;;;;;;;6.38;3.28;;;;;;;4.71;100.00;99997.09;12184000;19;20032;-80
2023/01/30 11:28:05;;;;;;;6.78;3.40;;;;;;;5.11;100.00;99999.88;12207326;19;20060;-80
2023/01/30 11:32:25;;;;;;;6.18;3.30;;;;;;;5.46;99.98;100008.69;12207365;19;20010;-82
2023/01/30 11:36:32;;;;;;;6.93;3.25;;;;;;;5.51;98.98;100002.59;12195535;19;20010;-80
2023/01/30 11:40:37;;;;;;;6.65;3.38;;;;;;;5.36;99.75;99995.47;12253196;19;20014;-83
2023/01/30 11:44:41;;;;;;;8.02;3.80;;;;;;;5.27;100.00;99996.72;12232724;19;20006;-83
2023/01/30 11:48:54;;;;;;;10.52;4.07;;;;;;;5.14;100.00;100015.84;12213745;19;20053;-81
2023/01/30 11:53:33;;;;;;;7.82;3.88;;;;;;;4.97;100.00;100027.19;12215247;19;20026;-80
2023/01/30 11:57:40;;;;;;;6.32;3.05;;;;;;;4.95;100.00;100020.25;12187775;19;20026;-82
2023/01/30 12:01:43;;;;;;;6.40;3.35;;;;;;;4.84;100.00;100018.13;12208950;19;20070;-83
2023/01/30 12:05:46;;;;;;;;;;;;;;;4.89;100.00;100024.63;12186237;19;20017;-83
2023/01/30 12:09:49;;;;;;;4.23;2.20;;;;;;;4.99;100.00;100025.06;12210465;19;19989;-82
2023/01/30 12:13:54;;;;;;;7.20;2.58;;;;;;;5.27;100.00;100026.78;12208304;19;20006;-81
2023/01/30 12:18:24;;;;;;;4.60;2.80;;;;;;;5.39;100.00;100014.16;12196039;19;20007;-80
2023/01/30 12:22:58;;;;;;;5.10;2.80;;;;;;;5.41;100.00;100020.25;12261109;19;20063;-86
2023/01/30 12:27:38;;;;;;;4.97;2.70;;;;;;;5.33;100.00;100009.53;12212064;19;20006;-83
2023/01/30 12:31:46;;;;;;;4.68;2.55;;;;;;;5.24;100.00;100002.63;12208536;19;20035;-84
2023/01/30 12:36:26;;;;;;;4.03;2.58;;;;;;;5.43;100.00;99982.63;12184220;19;20003;-85
2023/01/30 12:40:45;;;;;;;6.05;2.55;;;;;;;5.72;100.00;99984.03;12206181;19;20003;-84
2023/01/30 12:45:12;;;;;;;5.40;2.95;;;;;;;5.88;100.00;99981.88;12183461;19;20093;-81
2023/01/30 12:49:32;;;;;;;6.50;2.55;;;;;;;5.79;100.00;99985.91;12204677;19;20023;-85
2023/01/30 12:53:34;;;;;;;4.28;2.50;;;;;;;5.76;100.00;99984.44;12182097;19;20031;-81
2023/01/30 12:57:45;;;;;;;4.97;2.20;;;;;;;5.73;100.00;99984.88;12208374;19;20437;-83
2023/01/30 13:02:06;;;;;;;3.95;2.40;;;;;;;5.63;100.00;99987.22;12204837;19;20002;-85
2023/01/30 13:06:25;;;;;;;4.00;2.10;;;;;;;5.66;100.00;99989.53;12187168;19;20034;-83
2023/01/30 13:10:36;;;;;;;4.22;2.08;;;;;;;5.70;100.00;99993.50;12215348;19;20028;-81
2023/01/30 13:14:47;;;;;;;3.22;1.77;;;;;;;5.64;100.00;99999.81;12195566;19;20006;-84
2023/01/30 13:19:19;;;;;;;3.05;1.85;;;;;;;5.72;100.00;99994.13;12216284;19;20007;-81
2023/01/30 13:23:56;;;;;;;3.50;1.63;;;;;;;5.79;100.00;99989.47;12217652;19;20023;-82
2023/01/30 13:28:03;;;;;;;3.45;1.65;;;;;;;5.98;100.00;99990.53;12204170;19;20031;-85
2023/01/30 13:32:13;;;;;;;2.63;1.52;;;;;;;6.04;100.00;99991.53;12215989;19;20498;-83
2023/01/30 13:36:38;;;;;;;4.70;2.10;;;;;;;6.03;100.00;100003.53;12191255;19;20003;-83
2023/01/30 13:40:43;;;;;;;5.60;2.05;;;;;;;6.20;99.30;99999.28;12211800;19;20489;-85
2023/01/30 13:44:45;;;;;;;4.03;1.98;;;;;;;6.21;98.91;100017.38;12192151;19;20066;-82
2023/01/30 13:49:05;;;;;;;5.65;2.88;;;;;;;6.15;98.95;100016.34;12213032;19;20082;-82
2023/01/30 13:53:21;;;;;;;4.50;2.15;;;;;;;6.10;99.17;100023.53;12211600;19;20006;-81
2023/01/30 13:57:39;;;;;;;5.65;2.20;;;;;;;6.01;100.00;100028.41;12191239;19;20007;-81
2023/01/30 14:02:02;;;;;;;5.57;2.53;;;;;;;5.90;100.00;100032.59;12211350;19;20007;-83
2023/01/30 14:06:09;;;;;;;4.80;2.75;;;;;;;5.68;100.00;100039.34;12195959;19;20006;-84
2023/01/30 14:10:19;;;;;;;5.60;3.00;;;;;;;5.58;100.00;100045.25;12222964;19;20006;-81
2023/01/30 14:14:30;;;;;;;6.30;3.40;;;;;;;5.50;100.00;100037.25;12239320;19;20007;-82
2023/01/30 14:18:34;;;;;;;6.97;3.38;;;;;;;5.42;100.00;100046.53;12209521;19;20006;-81
2023/01/30 14:22:54;;;;;;;6.80;3.65;;;;;;;5.33;100.00;100025.94;12212882;19;20015;-83
2023/01/30 14:27:00;;;;;;;6.32;3.50;;;;;;;5.29;100.00;100038.31;12196084;19;20007;-81
2023/01/30 14:31:02;;;;;;;8.50;4.20;;;;;;;5.15;100.00;100033.94;12216173;19;20003;-81
2023/01/30 14:35:04;;;;;;;7.80;4.07;;;;;;;5.01;100.00;100039.34;12215467;19;20010;-81
2023/01/30 14:39:39;;;;;;;10.43;4.82;;;;;;;4.92;100.00;100035.16;12192906;19;20006;-82
2023/01/30 14:43:41;;;;;;;10.43;5.22;;;;;;;4.90;100.00;100056.34;12214876;19;20365;-82
2023/01/30 14:47:43;;;;;;;10.18;5.20;;;;;;;4.90;100.00;100072.72;12192758;19;20002;-82
2023/01/30 14:51:49;;;;;;;8.70;4.32;;;;;;;4.99;100.00;100076.09;12203120;19;20023;-82
2023/01/30 14:56:00;;;;;;;7.45;4.30;;;;;;;4.99;100.00;100096.06;12202824;19;20434;-82
2023/01/30 15:00:14;;;;;;;9.88;4.45;;;;;;;5.02;100.00;100108.47;12184719;19;20095;-83
2023/01/30 15:04:19;;;;;;;9.93;4.70;;;;;;;5.06;100.00;100109.75;12203834;19;20010;-82
2023/01/30 15:08:25;;;;;;;7.22;3.80;;;;;;;5.01;100.00;100112.25;12206578;19;20396;-82
2023/01/30 15:12:29;;;;;;;11.70;4.75;;;;;;;4.90;100.00;100132.81;12185532;19;20063;-83
2023/01/30 15:16:37;;;;;;;9.23;4.30;;;;;;;4.84;100.00;100141.81;12202959;19;20011;-84
2023/01/30 15:20:59;;;;;;;11.65;5.53;;;;;;;4.83;100.00;100142.88;12180890;19;20003;-81
2023/01/30 15:25:26;;;;;;;9.02;5.20;;;;;;;4.86;100.00;100155.28;12201524;19;20323;-81
2023/01/30 15:29:59;;;;;;;12.23;5.50;;;;;;;4.95;100.00;100171.28;12205326;19;20011;-84
2023/01/30 15:34:00;;;;;;;11.55;5.72;;;;;;;5.01;100.00;100173.19;12180381;19;20035;-83
2023/01/30 15:38:02;;;;;;;16.25;7.72;;;;;;;4.92;100.00;100166.22;12201247;19;19999;-82
2023/01/30 15:42:06;;;;;;;26.98;12.13;;;;;;;4.87;100.00;100171.44;12179896;19;20027;-84
2023/01/30 15:46:20;;;;;;;27.00;12.82;;;;;;;4.87;100.00;100171.44;12199997;19;20010;-81
2023/01/30 15:50:22;;;;;;;25.45;12.52;;;;;;;4.86;100.00;100180.69;12201758;19;20010;-80
2023/01/30 15:54:24;;;;;;;25.48;12.00;;;;;;;4.81;100.00;100180.44;12178385;19;20534;-83
2023/01/30 15:58:27;;;;;;;33.78;15.10;;;;;;;4.72;100.00;100178.94;12201736;19;20374;-81
2023/01/30 16:02:30;;;;;;;;;;;;;;;4.50;100.00;100181.78;12202568;19;20031;-80
2023/01/30 16:06:34;;;;;;;28.45;13.35;;;;;;;4.30;100.00;100183.53;12178193;19;19911;-80
2023/01/30 16:10:43;;;;;;;27.45;9.23;;;;;;;4.14;100.00;100192.88;12199591;19;20084;-81
2023/01/30 16:14:44;;;;;;;20.42;7.50;;;;;;;4.03;100.00;100201.59;12178131;19;20416;-82
2023/01/30 16:18:49;;;;;;;13.85;6.63;;;;;;;3.95;100.00;100215.38;12203319;19;20094;-83
2023/01/30 16:22:51;;;;;;;12.52;5.22;;;;;;;3.84;100.00;100223.06;12200897;19;20003;-82
2023/01/30 16:27:00;;;;;;;13.63;5.10;;;;;;;3.74;100.00;100217.06;12182202;19;21684;-82
2023/01/30 16:31:05;;;;;;;12.90;5.70;;;;;;;3.65;100.00;100226.41;12200083;19;20018;-80
2023/01/30 16:35:25;;;;;;;13.93;5.35;;;;;;;3.56;100.00;100238.47;12207688;19;20006;-84
2023/01/30 16:39:34;;;;;;;11.73;5.32;;;;;;;3.58;100.00;100236.41;12180712;19;20003;-82
2023/01/30 16:43:43;;;;;;;11.95;5.25;;;;;;;3.68;100.00;100256.00;12210197;19;20017;-80
2023/01/30 16:47:44;;;;;;;14.95;5.15;;;;;;;3.83;100.00;100258.66;12194620;19;20006;-80
2023/01/30 16:51:48;;;;;;;10.25;5.70;;;;;;;3.95;100.00;100253.53;12212227;19;20482;-81
2023/01/30 16:55:57;;;;;;;11.82;4.65;;;;;;;4.00;100.00;100256.53;12219434;19;20010;-80
2023/01/30 17:00:13;;;;;;;11.80;5.45;;;;;;;4.08;100.00;100264.59;12206034;19;20333;-80
2023/01/30 17:04:20;;;;;;;10.90;4.95;;;;;;;4.17;100.00;100266.13;12265401;19;20019;-80
2023/01/30 17:08:48;;;;;;;8.93;4.43;;;;;;;4.24;100.00;100271.63;12276948;19;20062;-87
2023/01/30 17:12:51;;;;;;;12.30;5.07;;;;;;;4.25;100.00;100292.41;12255557;19;20011;-87
2023/01/30 17:17:08;;;;;;;19.02;8.18;;;;;;;4.31;100.00;100291.59;12232666;19;20014;-82
2023/01/30 17:21:12;;;;;;;19.35;9.07;;;;;;;4.36;100.00;100294.59;12201983;19;20643;-82
2023/01/30 17:25:30;;;;;;;24.63;9.77;;;;;;;4.40;100.00;100292.31;12223100;19;20055;-81
2023/01/30 17:29:32;;;;;;;9.60;5.10;;;;;;;4.43;100.00;100308.28;12229262;19;20007;-79
2023/01/30 17:33:43;;;;;;;9.93;4.55;;;;;;;4.43;100.00;100309.16;12256207;19;20070;-83
2023/01/30 17:37:49;;;;;;;7.35;4.43;;;;;;;4.46;100.00;100311.50;12219320;19;20078;-83
2023/01/30 17:42:08;;;;;;;10.50;4.57;;;;;;;4.50;100.00;100315.50;12193042;19;20524;-79
2023/01/30 17:46:11;;;;;;;10.20;4.93;;;;;;;4.59;100.00;100323.56;12216405;19;20002;-83
2023/01/30 17:50:13;;;;;;;11.00;5.18;;;;;;;4.61;100.00;100330.50;12217461;19;20007;-81
2023/01/30 17:54:15;;;;;;;10.35;5.28;;;;;;;4.67;100.00;100339.75;12195438;19;20031;-82
2023/01/30 17:58:18;;;;;;;10.15;4.95;;;;;;;4.70;100.00;100350.28;12219989;19;20047;-79
2023/01/30 18:02:19;;;;;;;10.60;5.55;;;;;;;4.71;100.00;100355.56;12220700;19;20003;-81
2023/01/30 18:06:21;;;;;;;12.57;4.78;;;;;;;4.75;100.00;100373.22;12203137;19;20002;-80
2023/01/30 18:10:22;;;;;;;9.70;4.97;;;;;;;4.76;100.00;100382.28;12239762;19;20038;-84
2023/01/30 18:14:24;;;;;;;11.05;5.13;;;;;;;4.76;100.00;100379.53;12223578;19;20010;-81
2023/01/30 18:18:26;;;;;;;12.32;5.63;;;;;;;4.77;100.00;100373.88;12203780;19;20105;-82
2023/01/30 18:22:27;;;;;;;12.02;6.57;;;;;;;4.73;100.00;100382.63;12225535;19;20835;-81
2023/01/30 18:26:29;;;;;;;22.13;9.68;;;;;;;4.62;100.00;100394.97;12223242;19;20582;-81
2023/01/30 18:30:31;;;;;;;17.08;8.57;;;;;;;4.61;100.00;100398.75;12204715;19;20691;-81
2023/01/30 18:34:32;;;;;;;14.10;6.72;;;;;;;4.63;100.00;100415.75;12222451;19;20014;-81
2023/01/30 18:38:35;;;;;;;12.25;7.70;;;;;;;4.66;100.00;100422.69;12199730;19;21170;-83
2023/01/30 18:42:36;;;;;;;14.25;6.40;;;;;;;4.61;100.00;100415.13;12209592;19;20378;-81
2023/01/30 18:46:38;;;;;;;15.20;5.70;;;;;;;4.52;100.00;100411.69;12217390;19;20002;-83
2023/01/30 18:50:39;;;;;;;13.25;6.55;;;;;;;4.52;100.00;100421.72;12187056;19;20027;-80
2023/01/30 18:54:42;;;;;;;13.35;6.50;;;;;;;4.56;100.00;100431.22;12205264;19;20044;-79
2023/01/30 18:58:43;;;;;;;13.47;6.67;;;;;;;4.60;100.00;100431.69;12222647;19;20472;-82
2023/01/30 19:02:52;;;;;;;14.52;8.18;;;;;;;4.57;100.00;100427.44;12202111;19;20010;-80
2023/01/30 19:06:54;;;;;;;17.48;8.75;;;;;;;4.56;100.00;100439.41;12218400;19;20003;-82